Time;durP1;ratioP1;P1;durP2;ratioP2;P2;SDS_P1;SDS_P2;PMS_P1;PMS_P2;Temp;Humidity;BMP_temperature;BMP_pressure;BME280_temperature;BME280_humidity;BME280_pressure;Samples;Min_cycle;Max_cycle;Signal;HPM_P1;HPM_P2
2022/07/10 00:00:04;;;;;;;2.17;1.45;;;;;;;15.12;62.66;101961.06;4961004;28;20018;-67
2022/07/10 00:02:29;;;;;;;3.55;1.30;;;;;;;15.10;62.51;101953.19;4930889;28;20696;-67
2022/07/10 00:04:55;;;;;;;3.13;1.30;;;;;;;15.15;62.88;101943.94;4930081;28;20512;-68
2022/07/10 00:07:20;;;;;;;5.32;1.20;;;;;;;15.11;62.87;101946.03;4980167;28;20600;-68
2022/07/10 00:09:46;;;;;;;1.45;1.13;;;;;;;15.17;62.63;101948.13;4934790;28;20148;-67
2022/07/10 00:12:11;;;;;;;2.10;1.30;;;;;;;15.02;62.61;101945.03;4964392;28;20110;-66
2022/07/10 00:14:37;;;;;;;1.83;1.10;;;;;;;15.03;63.05;101951.19;4948456;28;20596;-67
2022/07/10 00:17:02;;;;;;;2.58;1.15;;;;;;;14.96;63.38;101944.72;4957992;28;20026;-67
2022/07/10 00:19:28;;;;;;;1.85;1.10;;;;;;;14.90;63.44;101946.94;4967952;28;20018;-67
2022/07/10 00:21:53;;;;;;;2.75;1.15;;;;;;;14.84;63.46;101947.50;4966645;28;20033;-67
2022/07/10 00:24:19;;;;;;;2.58;1.33;;;;;;;14.82;63.93;101943.28;4985884;28;20467;-69
2022/07/10 00:26:44;;;;;;;2.97;1.30;;;;;;;14.79;63.59;101947.06;4966126;28;20018;-67
2022/07/10 00:29:10;;;;;;;2.10;1.20;;;;;;;14.80;63.81;101948.75;4970745;28;20045;-67
2022/07/10 00:31:35;;;;;;;4.95;1.60;;;;;;;14.82;63.91;101943.28;4966097;28;20841;-67
2022/07/10 00:34:00;;;;;;;2.25;1.00;;;;;;;14.83;63.56;101944.97;4989165;28;20457;-67
2022/07/10 00:36:26;;;;;;;3.22;1.27;;;;;;;14.79;63.90;101941.72;4986217;28;20029;-67
2022/07/10 00:38:51;;;;;;;3.10;1.10;;;;;;;14.66;63.94;101944.63;4970358;28;20053;-66
2022/07/10 00:41:17;;;;;;;2.10;1.17;;;;;;;14.69;63.99;101944.38;4965868;28;20379;-68
2022/07/10 00:43:57;;;;;;;2.40;1.13;;;;;;;14.79;63.92;101943.56;4985592;28;20560;-67
2022/07/10 00:46:23;;;;;;;5.00;1.10;;;;;;;14.70;63.75;101948.72;4958634;28;20029;-66
2022/07/10 00:48:48;;;;;;;3.78;1.25;;;;;;;14.68;64.42;101942.69;4962746;28;20130;-67
2022/07/10 00:51:17;;;;;;;3.42;1.10;;;;;;;14.61;64.34;101944.16;4986447;28;20018;-66
2022/07/10 00:53:44;;;;;;;1.27;0.98;;;;;;;14.60;64.40;101939.81;4981177;28;20119;-67
2022/07/10 00:56:10;;;;;;;3.20;1.10;;;;;;;14.53;64.26;101944.00;4964927;28;20068;-67
2022/07/10 00:58:36;;;;;;;3.75;1.30;;;;;;;14.50;64.43;101938.94;4989079;28;20413;-67
2022/07/10 01:01:02;;;;;;;1.50;1.10;;;;;;;14.49;64.80;101939.91;4967610;28;20163;-67
2022/07/10 01:03:27;;;;;;;2.25;1.25;;;;;;;14.38;65.32;101941.69;4964156;28;20037;-67
2022/07/10 01:05:53;;;;;;;2.90;1.30;;;;;;;14.36;65.31;101929.47;4968972;28;20024;-67
2022/07/10 01:08:18;;;;;;;2.40;1.10;;;;;;;14.41;65.47;101930.75;4984120;28;20059;-68
2022/07/10 01:10:44;;;;;;;1.98;1.10;;;;;;;14.52;65.15;101936.97;4968323;28;20020;-67
2022/07/10 01:13:10;;;;;;;3.92;1.13;;;;;;;14.51;64.88;101924.63;4966309;28;20038;-66
2022/07/10 01:15:36;;;;;;;2.42;1.17;;;;;;;14.46;65.04;101924.19;4977274;28;20137;-68
2022/07/10 01:18:01;;;;;;;2.38;1.25;;;;;;;14.37;65.32;101920.50;4973452;28;20074;-67
2022/07/10 01:20:33;;;;;;;1.45;1.17;;;;;;;14.36;65.34;101914.31;4970264;28;20443;-68
2022/07/10 01:22:59;;;;;;;2.03;1.10;;;;;;;14.34;65.68;101918.09;4983516;28;20997;-68
2022/07/10 01:25:24;;;;;;;1.95;1.10;;;;;;;14.39;65.97;101902.56;4986267;28;20033;-68
2022/07/10 01:27:50;;;;;;;1.88;1.10;;;;;;;14.32;65.71;101910.25;5001780;28;20079;-68
2022/07/10 01:30:16;;;;;;;4.28;1.58;;;;;;;14.24;66.18;101904.72;4963295;28;21195;-67
2022/07/10 01:32:41;;;;;;;3.03;1.40;;;;;;;14.18;66.49;101897.28;4955808;28;20026;-67
2022/07/10 01:35:07;;;;;;;3.03;1.25;;;;;;;13.96;67.35;101896.47;4932760;28;20030;-68
2022/07/10 01:37:33;;;;;;;2.85;0.95;;;;;;;13.76;67.54;101881.34;4967397;28;20037;-68
2022/07/10 01:39:58;;;;;;;3.90;1.10;;;;;;;13.71;68.35;101884.41;4967648;28;20421;-67
2022/07/10 01:42:24;;;;;;;3.47;1.38;;;;;;;13.59;68.70;101875.63;4980077;28;20026;-65
2022/07/10 01:44:49;;;;;;;2.47;1.20;;;;;;;13.50;69.06;101889.69;4977681;28;20014;-69
2022/07/10 01:47:14;;;;;;;1.35;1.10;;;;;;;13.60;69.18;101893.25;4968710;28;20032;-67
2022/07/10 01:49:40;;;;;;;3.33;1.38;;;;;;;13.73;68.69;101891.28;4974603;28;20017;-67
2022/07/10 01:52:06;;;;;;;1.63;1.33;;;;;;;13.75;68.33;101891.16;4967091;28;20491;-67
2022/07/10 01:54:31;;;;;;;3.42;1.80;;;;;;;13.78;68.54;101892.72;4981267;28;20777;-67
2022/07/10 01:56:57;;;;;;;3.20;1.52;;;;;;;13.74;68.61;101894.78;4949793;28;20094;-66
2022/07/10 01:59:22;;;;;;;3.92;1.52;;;;;;;13.64;69.34;101897.38;4963800;28;20014;-67
2022/07/10 02:01:48;;;;;;;2.03;1.00;;;;;;;13.81;68.95;101893.28;4967737;28;20919;-67
2022/07/10 02:06:57;;;;;;;1.85;1.10;;;;;;;13.95;68.58;101892.13;4997354;28;20331;-65
2022/07/10 02:09:23;;;;;;;3.42;1.10;;;;;;;14.11;68.09;101890.81;4988896;28;20009;-66
2022/07/10 02:11:48;;;;;;;3.25;1.25;;;;;;;14.15;67.89;101892.22;4983111;28;20033;-67
2022/07/10 02:14:13;;;;;;;1.65;1.27;;;;;;;14.11;67.82;101894.28;4976933;28;20085;-66
2022/07/10 02:16:39;;;;;;;3.63;1.30;;;;;;;14.17;67.86;101884.94;4972153;28;20045;-66
2022/07/10 02:19:04;;;;;;;4.03;1.00;;;;;;;14.25;67.83;101890.44;4969156;28;20014;-67
2022/07/10 02:21:30;;;;;;;3.75;1.30;;;;;;;14.37;67.34;101880.56;4943475;28;20457;-67
2022/07/10 02:23:55;;;;;;;2.33;1.38;;;;;;;14.29;67.25;101872.41;4958337;28;20573;-67
2022/07/10 02:26:21;;;;;;;3.10;1.00;;;;;;;14.40;67.05;101878.47;4951052;28;20033;-66
2022/07/10 02:28:46;;;;;;;2.60;1.10;;;;;;;14.34;67.37;101873.69;4970661;28;20029;-67
2022/07/10 02:31:11;;;;;;;2.35;1.30;;;;;;;14.44;67.26;101865.75;4949536;28;20448;-66
2022/07/10 02:33:37;;;;;;;4.50;1.27;;;;;;;14.41;66.82;101866.84;4986567;28;20018;-67
2022/07/10 02:36:04;;;;;;;2.28;1.15;;;;;;;14.28;66.91;101873.38;4967398;28;20329;-66
2022/07/10 02:38:29;;;;;;;4.97;1.40;;;;;;;14.16;67.23;101862.81;4967130;28;20074;-67
2022/07/10 02:40:55;;;;;;;3.95;1.20;;;;;;;14.29;67.07;101867.06;4970733;28;20010;-66
2022/07/10 02:43:20;;;;;;;2.38;1.20;;;;;;;14.23;67.20;101874.59;4986421;28;20053;-67
2022/07/10 02:45:46;;;;;;;2.67;1.30;;;;;;;14.29;67.06;101870.56;4984839;28;20002;-67
2022/07/10 02:48:11;;;;;;;3.17;1.30;;;;;;;14.15;67.31;101865.59;4985463;28;20018;-67
2022/07/10 02:50:37;;;;;;;2.58;1.30;;;;;;;13.95;68.38;101870.81;4970178;28;20604;-67
2022/07/10 02:53:03;;;;;;;2.08;1.02;;;;;;;14.02;68.43;101868.50;4984562;28;20021;-67
2022/07/10 02:55:31;;;;;;;4.88;1.25;;;;;;;13.96;68.70;101869.84;4988851;28;20036;-67
2022/07/10 02:57:57;;;;;;;2.17;1.00;;;;;;;13.91;68.76;101864.91;4990055;28;20575;-68
2022/07/10 03:00:22;;;;;;;1.70;1.00;;;;;;;13.80;69.55;101866.81;4985800;28;20415;-68
2022/07/10 03:02:47;;;;;;;1.98;0.90;;;;;;;13.79;69.92;101867.78;4981275;28;20028;-68
2022/07/10 03:05:13;;;;;;;1.92;1.00;;;;;;;13.89;70.49;101876.69;4965604;28;20025;-67
2022/07/10 03:07:39;;;;;;;4.05;1.10;;;;;;;13.86;70.57;101876.91;4987767;28;20479;-68
2022/07/10 03:10:04;;;;;;;1.05;0.93;;;;;;;13.90;70.33;101873.03;4948435;28;20030;-67
2022/07/10 03:12:30;;;;;;;2.38;1.10;;;;;;;13.84;70.60;101879.72;4988528;28;20136;-67
2022/07/10 03:14:56;;;;;;;2.92;1.20;;;;;;;13.84;70.55;101879.72;4968467;28;20080;-65
2022/07/10 03:17:21;;;;;;;4.88;1.00;;;;;;;13.80;70.55;101874.78;4978238;28;20010;-67
2022/07/10 03:19:46;;;;;;;1.20;0.82;;;;;;;13.78;71.35;101876.75;4948918;28;20466;-67
2022/07/10 03:22:12;;;;;;;3.67;1.27;;;;;;;13.67;71.50;101881.13;4948647;28;20026;-67
2022/07/10 03:24:38;;;;;;;2.72;1.23;;;;;;;13.71;71.49;101885.22;4943977;28;20030;-67
2022/07/10 03:27:05;;;;;;;1.30;1.10;;;;;;;13.71;71.32;101889.72;4965822;28;20414;-68
2022/07/10 03:29:30;;;;;;;1.20;1.10;;;;;;;13.65;71.70;101872.47;4953979;28;20605;-68
2022/07/10 03:31:56;;;;;;;3.13;1.23;;;;;;;13.59;71.95;101883.59;4931807;28;20377;-68
2022/07/10 03:34:21;;;;;;;1.70;1.02;;;;;;;13.73;72.06;101882.44;4968954;28;21229;-66
2022/07/10 03:36:47;;;;;;;1.77;0.95;;;;;;;13.63;71.81;101887.69;4965335;28;20126;-67
2022/07/10 03:39:12;;;;;;;3.08;1.30;;;;;;;13.65;71.47;101891.06;4986677;28;20401;-67
2022/07/10 03:41:38;;;;;;;2.22;1.10;;;;;;;13.53;72.41;101884.13;4964594;28;20041;-67
2022/07/10 03:44:05;;;;;;;5.80;1.30;;;;;;;13.53;72.19;101889.44;4968642;28;20014;-67
2022/07/10 03:46:30;;;;;;;3.75;1.20;;;;;;;13.52;71.77;101880.63;4975092;28;20014;-68
2022/07/10 03:48:56;;;;;;;4.93;1.30;;;;;;;13.50;72.24;101887.03;4961738;28;20087;-68
2022/07/10 03:51:21;;;;;;;2.70;1.23;;;;;;;13.44;72.58;101883.06;4964038;28;20996;-69
2022/07/10 03:53:47;;;;;;;2.60;1.20;;;;;;;13.49;72.57;101885.34;4983591;28;20010;-67
2022/07/10 03:57:53;;;;;;;1.60;0.90;;;;;;;13.49;72.65;101886.19;4970376;28;20033;-68
2022/07/10 03:58:58;;;;;;;1.88;1.02;;;;;;;13.48;72.78;101886.31;4985947;28;20383;-68
2022/07/10 04:01:23;;;;;;;4.53;1.40;;;;;;;13.49;72.46;101880.84;4969137;28;20916;-66
2022/07/10 04:03:48;;;;;;;3.15;1.50;;;;;;;13.43;73.04;101876.06;4969441;28;20026;-68
2022/07/10 04:06:14;;;;;;;2.53;1.20;;;;;;;13.43;72.96;101868.09;4953770;28;20529;-67
2022/07/10 04:08:39;;;;;;;2.10;1.25;;;;;;;13.46;72.99;101872.31;4973493;28;20029;-68
2022/07/10 04:11:05;;;;;;;2.08;1.25;;;;;;;13.36;73.37;101875.72;4965376;28;20383;-68
2022/07/10 04:13:30;;;;;;;3.72;1.23;;;;;;;13.37;73.36;101877.41;4982549;28;20921;-68
2022/07/10 04:15:55;;;;;;;3.65;1.10;;;;;;;13.39;73.23;101878.13;4957154;28;20025;-68
2022/07/10 04:18:21;;;;;;;3.97;1.40;;;;;;;13.35;73.64;101879.38;4965735;28;20030;-68
2022/07/10 04:20:47;;;;;;;1.42;1.05;;;;;;;13.39;73.76;101874.63;4968528;28;20920;-67
2022/07/10 04:23:12;;;;;;;1.73;1.10;;;;;;;13.50;73.68;101868.44;4985665;28;20929;-67
2022/07/10 04:25:37;;;;;;;2.67;1.40;;;;;;;13.43;73.62;101876.06;4986894;28;20026;-67
2022/07/10 04:28:03;;;;;;;3.08;1.17;;;;;;;13.50;73.60;101873.75;4950793;28;20113;-67
2022/07/10 04:30:28;;;;;;;3.33;1.38;;;;;;;13.46;73.34;101881.13;4951565;28;20411;-67
2022/07/10 04:32:54;;;;;;;4.85;1.27;;;;;;;13.46;73.68;101881.13;4964530;28;20240;-67
2022/07/10 04:35:19;;;;;;;3.70;1.30;;;;;;;13.38;73.84;101878.25;4950669;28;20546;-67
2022/07/10 04:37:46;;;;;;;1.88;1.40;;;;;;;13.34;74.34;101882.97;4950626;28;20045;-67
2022/07/10 04:40:11;;;;;;;2.45;1.15;;;;;;;13.38;74.25;101884.44;4982584;28;20237;-66
2022/07/10 04:42:37;;;;;;;2.33;1.35;;;;;;;13.44;74.37;101884.88;4983909;28;20022;-67
2022/07/10 04:45:03;;;;;;;4.03;1.30;;;;;;;13.43;74.36;101888.53;4955480;28;20537;-67
2022/07/10 04:47:28;;;;;;;5.97;1.40;;;;;;;13.51;74.11;101886.06;4960992;28;20029;-64
2022/07/10 04:49:53;;;;;;;1.55;1.30;;;;;;;13.48;74.37;101891.63;4994977;28;20286;-67
2022/07/10 04:52:19;;;;;;;3.13;1.45;;;;;;;13.49;74.43;101888.00;4965731;28;20145;-68
2022/07/10 04:54:44;;;;;;;5.15;1.30;;;;;;;13.61;74.66;101886.13;4984916;28;20084;-68
2022/07/10 04:57:10;;;;;;;2.53;1.20;;;;;;;13.50;74.87;101882.56;4964805;28;20025;-65
2022/07/10 04:59:35;;;;;;;2.67;1.48;;;;;;;13.57;75.12;101882.91;4966622;28;20091;-67
2022/07/10 05:02:01;;;;;;;2.38;1.42;;;;;;;13.52;75.34;101887.75;4970643;28;20010;-66
2022/07/10 05:04:26;;;;;;;4.15;1.63;;;;;;;13.57;75.06;101885.56;4983930;28;20021;-67
2022/07/10 05:06:51;;;;;;;3.50;1.30;;;;;;;13.60;75.09;101895.94;4984752;28;20026;-65
2022/07/10 05:09:19;;;;;;;2.47;1.40;;;;;;;13.67;74.66;101889.13;4966220;28;20001;-66
2022/07/10 05:11:45;;;;;;;3.60;1.35;;;;;;;13.81;74.09;101882.63;4969323;28;20847;-66
2022/07/10 05:14:11;;;;;;;3.03;1.30;;;;;;;13.93;74.07;101883.41;4965038;28;20017;-66
2022/07/10 05:16:36;;;;;;;5.50;1.30;;;;;;;14.16;73.73;101896.59;4987694;28;20596;-67
2022/07/10 05:19:01;;;;;;;2.75;1.40;;;;;;;14.28;72.47;101890.19;4969821;28;20103;-66
2022/07/10 05:21:27;;;;;;;5.28;1.55;;;;;;;14.39;72.23;101889.25;4968409;28;20232;-66
2022/07/10 05:23:52;;;;;;;3.22;1.48;;;;;;;14.53;71.58;101891.56;4948617;28;20022;-64
2022/07/10 05:26:18;;;;;;;5.65;1.88;;;;;;;14.63;71.01;101896.13;4985818;28;20025;-67
2022/07/10 05:28:43;;;;;;;3.72;1.50;;;;;;;14.67;71.00;101900.19;4948938;28;20065;-65
2022/07/10 05:31:09;;;;;;;3.45;1.50;;;;;;;14.76;70.92;101900.22;4932879;28;20453;-66
2022/07/10 05:33:34;;;;;;;3.03;1.55;;;;;;;14.86;70.46;101907.38;4949307;28;20539;-67
2022/07/10 05:36:00;;;;;;;9.63;1.88;;;;;;;15.00;70.19;101904.31;4982919;28;20593;-67
2022/07/10 05:38:25;;;;;;;6.57;1.73;;;;;;;15.03;70.08;101904.06;4948704;28;20037;-65
2022/07/10 05:40:53;;;;;;;2.53;1.52;;;;;;;15.13;69.67;101909.44;4965396;28;20517;-67
2022/07/10 05:43:18;;;;;;;6.60;1.65;;;;;;;15.10;69.42;101905.22;4915821;28;20755;-67
2022/07/10 05:45:43;;;;;;;5.78;1.95;;;;;;;15.27;69.09;101905.50;4965043;28;20556;-66
2022/07/10 05:48:10;;;;;;;4.90;2.13;;;;;;;15.40;68.15;101922.06;4960028;28;20014;-67
2022/07/10 05:50:35;;;;;;;6.75;1.77;;;;;;;15.38;67.72;101918.69;4975512;28;20032;-66
2022/07/10 05:53:01;;;;;;;4.95;1.85;;;;;;;15.56;67.83;101905.50;4983503;28;20333;-68
2022/07/10 05:55:26;;;;;;;4.47;1.63;;;;;;;15.68;67.41;101908.03;4946995;28;20033;-66
2022/07/10 05:57:52;;;;;;;3.53;1.70;;;;;;;15.90;67.00;101907.75;4983114;28;20043;-66
2022/07/10 06:00:17;;;;;;;4.57;1.77;;;;;;;16.04;66.33;101903.78;4950886;28;20122;-65
2022/07/10 06:02:43;;;;;;;6.50;1.90;;;;;;;16.11;65.25;101920.91;4986067;28;20018;-66
2022/07/10 06:05:09;;;;;;;3.28;1.55;;;;;;;16.24;64.47;101907.22;4947907;28;20089;-67
2022/07/10 06:07:34;;;;;;;3.72;1.50;;;;;;;16.35;63.92;101911.56;4946730;28;20199;-67
2022/07/10 06:10:00;;;;;;;6.35;1.58;;;;;;;16.33;62.97;101910.88;4948381;28;20022;-67
2022/07/10 06:12:26;;;;;;;2.72;1.30;;;;;;;16.47;62.35;101914.91;4942671;28;20014;-67
2022/07/10 06:14:51;;;;;;;2.22;1.23;;;;;;;16.51;62.20;101910.09;4955765;28;20014;-67
2022/07/10 06:17:16;;;;;;;3.55;1.33;;;;;;;16.53;61.23;101902.78;4953101;28;20938;-67
2022/07/10 06:19:42;;;;;;;4.78;1.48;;;;;;;16.70;59.88;101914.53;4968994;28;20006;-67
2022/07/10 06:24:51;;;;;;;;;;;;;;;16.83;59.44;101907.81;4982642;28;20373;-64
2022/07/10 06:27:17;;;;;;;3.93;1.60;;;;;;;16.87;59.43;101904.88;4983290;28;19900;-67
2022/07/10 06:29:42;;;;;;;3.72;1.20;;;;;;;16.91;60.14;101909.78;4967229;28;20018;-66
2022/07/10 06:32:08;;;;;;;4.90;1.63;;;;;;;16.82;59.95;101906.16;4966245;28;20235;-67
2022/07/10 06:34:33;;;;;;;3.85;1.30;;;;;;;16.69;60.78;101916.34;4949493;28;20014;-68
2022/07/10 06:36:59;;;;;;;3.65;1.60;;;;;;;16.70;60.55;101915.34;4982926;28;20038;-67
2022/07/10 06:39:24;;;;;;;3.63;1.40;;;;;;;16.69;59.52;101913.66;4948728;28;20057;-67
2022/07/10 06:41:49;;;;;;;3.80;1.40;;;;;;;16.52;59.34;101912.63;4965963;28;20038;-67
2022/07/10 06:44:15;;;;;;;4.28;1.70;;;;;;;16.47;60.66;101915.75;4947081;28;20088;-67
2022/07/10 06:46:40;;;;;;;2.42;1.60;;;;;;;16.53;61.13;101913.47;4986762;28;20017;-68
2022/07/10 06:49:06;;;;;;;2.60;1.45;;;;;;;16.64;61.40;101915.97;4968664;28;20018;-65
2022/07/10 06:51:31;;;;;;;5.30;1.85;;;;;;;16.67;60.79;101907.63;4972694;28;20014;-67
2022/07/10 06:53:57;;;;;;;5.85;2.00;;;;;;;16.73;60.43;101914.22;4969321;28;20022;-66
2022/07/10 06:56:22;;;;;;;2.95;2.28;;;;;;;16.83;60.71;101915.00;4984283;28;20518;-67
2022/07/10 06:58:48;;;;;;;8.15;2.67;;;;;;;16.90;60.66;101907.25;4957356;28;20163;-66
2022/07/10 07:01:13;;;;;;;5.00;1.85;;;;;;;16.97;59.84;101911.03;4974783;28;20548;-67
2022/07/10 07:03:39;;;;;;;3.88;1.90;;;;;;;16.82;58.16;101915.97;4994858;28;20137;-66
2022/07/10 07:06:04;;;;;;;3.25;1.77;;;;;;;16.70;59.47;101915.34;4968056;28;20017;-67
2022/07/10 07:08:30;;;;;;;5.55;1.90;;;;;;;16.74;59.95;101918.59;4970344;28;20024;-66
2022/07/10 07:10:55;;;;;;;4.22;1.60;;;;;;;16.71;59.56;101914.38;4968628;28;20041;-67
2022/07/10 07:13:21;;;;;;;5.28;1.83;;;;;;;16.67;59.24;101915.66;4955990;28;20109;-66
2022/07/10 07:15:53;;;;;;;3.30;1.45;;;;;;;16.69;58.98;101913.66;4966634;28;20965;-66
2022/07/10 07:18:21;;;;;;;4.95;1.63;;;;;;;16.71;59.42;101909.03;4968521;28;20010;-67
2022/07/10 07:23:30;;;;;;;;;;;;;;;16.85;59.59;101912.19;4984072;28;20256;-66
2022/07/10 07:25:55;;;;;;;3.20;1.70;;;;;;;16.83;58.01;101915.00;4974639;28;20427;-66
2022/07/10 07:28:21;;;;;;;2.70;1.30;;;;;;;16.86;58.26;101916.53;4950108;28;20627;-67
2022/07/10 07:30:47;;;;;;;3.55;1.50;;;;;;;16.89;59.03;101922.44;4929990;28;20071;-68
2022/07/10 07:33:12;;;;;;;3.50;1.67;;;;;;;16.88;58.63;101919.91;4951856;28;20783;-67
2022/07/10 07:35:38;;;;;;;3.13;1.30;;;;;;;16.94;59.27;101922.84;4961750;28;20121;-67
2022/07/10 07:38:04;;;;;;;2.83;1.70;;;;;;;16.94;59.72;101922.84;4999221;28;20010;-66
2022/07/10 07:40:29;;;;;;;6.82;2.00;;;;;;;16.86;59.26;101924.56;4964615;28;20057;-67
2022/07/10 07:42:55;;;;;;;4.70;1.63;;;;;;;17.04;58.93;101924.63;4955014;28;20532;-68
2022/07/10 07:45:21;;;;;;;2.97;1.50;;;;;;;17.04;58.58;101920.13;4963812;28;22114;-66
2022/07/10 07:47:51;;;;;;;3.67;1.30;;;;;;;17.26;58.11;101909.97;4979788;28;20858;-67
2022/07/10 07:50:21;;;;;;;4.22;1.38;;;;;;;17.48;57.33;101919.38;4952170;28;20101;-67
2022/07/10 07:52:46;;;;;;;3.58;1.40;;;;;;;17.65;56.60;101913.19;4934062;28;20018;-67
2022/07/10 07:55:14;;;;;;;3.13;1.10;;;;;;;17.75;56.71;101915.75;4951161;28;20571;-67
2022/07/10 07:57:40;;;;;;;2.15;1.30;;;;;;;17.77;56.63;101924.47;4949491;28;20957;-68
2022/07/10 08:00:07;;;;;;;1.63;1.35;;;;;;;17.69;55.88;101927.09;4946053;28;20019;-67
2022/07/10 08:02:32;;;;;;;3.40;1.50;;;;;;;17.67;55.79;101915.72;4947167;28;20292;-67
2022/07/10 08:04:58;;;;;;;3.47;1.42;;;;;;;17.66;56.19;101922.03;4930568;28;20029;-67
2022/07/10 08:07:32;;;;;;;6.60;1.60;;;;;;;17.67;56.29;101916.53;4965130;28;20006;-67
2022/07/10 08:09:57;;;;;;;2.75;1.20;;;;;;;17.64;57.10;101919.53;4953300;28;20013;-67
2022/07/10 08:12:23;;;;;;;2.20;1.60;;;;;;;17.69;56.23;101917.22;4979840;28;20026;-68
2022/07/10 08:14:48;;;;;;;3.35;1.63;;;;;;;17.75;56.78;101915.75;4967597;28;20469;-68
2022/07/10 08:17:13;;;;;;;5.15;2.22;;;;;;;17.78;56.27;101915.47;4966051;28;20065;-67
2022/07/10 08:19:39;;;;;;;2.53;1.58;;;;;;;17.75;56.51;101913.06;4985694;28;20053;-68
2022/07/10 08:22:04;;;;;;;4.53;1.90;;;;;;;17.93;57.06;101918.44;4965815;28;20037;-69
2022/07/10 08:24:30;;;;;;;3.35;1.75;;;;;;;17.87;56.36;101916.34;4961009;28;20029;-69
2022/07/10 08:26:55;;;;;;;5.10;1.80;;;;;;;17.83;56.10;101923.03;4944982;28;20022;-68
2022/07/10 08:29:21;;;;;;;2.97;1.80;;;;;;;17.77;57.19;101918.28;4952130;28;20356;-68
2022/07/10 08:31:46;;;;;;;3.33;1.85;;;;;;;17.88;56.85;101915.38;4963506;28;20048;-69
2022/07/10 08:34:12;;;;;;;4.80;1.85;;;;;;;17.83;57.06;101918.50;4962310;28;20375;-68
2022/07/10 08:36:37;;;;;;;4.05;1.60;;;;;;;17.75;56.92;101915.75;4943122;28;20514;-68
2022/07/10 08:39:02;;;;;;;3.53;2.13;;;;;;;17.59;57.75;101926.34;4995137;28;20337;-68
2022/07/10 08:41:28;;;;;;;4.22;1.88;;;;;;;17.39;57.91;101928.34;4963338;28;20066;-67
2022/07/10 08:43:53;;;;;;;3.95;2.10;;;;;;;17.27;58.63;101927.72;4979416;28;20535;-67
2022/07/10 08:46:19;;;;;;;5.53;2.55;;;;;;;17.35;58.67;101930.47;4961264;28;20526;-67
2022/07/10 08:48:48;;;;;;;3.75;2.10;;;;;;;17.32;59.05;101923.56;4971902;28;20174;-67
2022/07/10 08:51:25;;;;;;;5.95;2.10;;;;;;;17.17;58.97;101931.31;4967921;28;20418;-67
2022/07/10 08:53:51;;;;;;;3.65;1.75;;;;;;;17.24;59.54;101923.50;4997008;28;20483;-66
2022/07/10 08:56:16;;;;;;;5.03;2.05;;;;;;;17.26;59.94;101926.00;4985275;28;20035;-66
2022/07/10 08:58:42;;;;;;;4.32;2.00;;;;;;;17.31;60.02;101929.09;4973607;28;20733;-67
2022/07/10 09:01:07;;;;;;;5.53;2.00;;;;;;;17.45;60.08;101923.19;4972687;28;20010;-65
2022/07/10 09:03:32;;;;;;;2.45;1.80;;;;;;;17.60;59.76;101917.31;4958267;28;20360;-67
2022/07/10 09:05:58;;;;;;;2.92;2.00;;;;;;;17.89;60.21;101916.19;4977803;28;20013;-68
2022/07/10 09:08:28;;;;;;;4.13;1.70;;;;;;;18.28;59.02;101913.97;4950575;28;20059;-67
2022/07/10 09:11:16;;;;;;;3.42;1.88;;;;;;;18.75;58.62;101918.03;4931631;28;20022;-65
2022/07/10 09:13:57;;;;;;;1.75;1.60;;;;;;;18.94;57.11;101905.38;4962417;28;20288;-65
2022/07/10 09:16:36;;;;;;;5.60;1.95;;;;;;;18.96;57.88;101914.09;4965069;28;20318;-67
2022/07/10 09:19:22;;;;;;;3.03;1.63;;;;;;;19.21;56.70;101915.00;4961201;28;20022;-66
2022/07/10 09:21:49;;;;;;;2.28;1.80;;;;;;;19.57;56.49;101901.25;4978955;28;20395;-66
2022/07/10 09:24:19;;;;;;;2.83;1.80;;;;;;;19.58;55.60;101900.25;4950192;28;20245;-66
2022/07/10 09:26:57;;;;;;;3.00;2.17;;;;;;;19.53;56.46;101900.78;4982101;28;20343;-67
2022/07/10 09:29:23;;;;;;;3.47;1.90;;;;;;;19.49;56.73;101904.81;4975919;28;20014;-66
2022/07/10 09:31:52;;;;;;;2.20;2.00;;;;;;;19.42;56.43;101905.63;4949750;28;20398;-67
2022/07/10 09:34:18;;;;;;;2.83;2.05;;;;;;;19.12;55.76;101903.44;4964201;28;20439;-67
2022/07/10 09:36:44;;;;;;;3.65;2.10;;;;;;;18.78;57.96;101898.09;4949562;28;20352;-66
2022/07/10 09:39:09;;;;;;;5.32;2.63;;;;;;;18.57;58.74;101893.16;4960086;28;20930;-66
2022/07/10 09:41:35;;;;;;;2.90;2.60;;;;;;;18.66;57.84;101902.94;4961137;28;20036;-66
2022/07/10 09:44:05;;;;;;;2.65;2.40;;;;;;;18.56;58.05;101904.88;4980937;28;20248;-68
2022/07/10 09:46:38;;;;;;;5.45;2.50;;;;;;;18.56;59.02;101905.72;4936638;28;20179;-67
2022/07/10 09:49:07;;;;;;;2.28;2.17;;;;;;;18.58;58.47;101898.34;4950992;28;20341;-68
2022/07/10 09:51:44;;;;;;;2.70;2.50;;;;;;;18.50;59.49;101901.84;4977066;28;20954;-68
2022/07/10 09:54:10;;;;;;;3.67;2.90;;;;;;;18.40;58.33;101892.25;4952358;28;20014;-66
2022/07/10 09:56:43;;;;;;;2.88;2.67;;;;;;;18.23;59.18;101902.88;4954122;28;21322;-66
2022/07/10 09:59:10;;;;;;;4.13;2.92;;;;;;;18.18;59.77;101900.69;4948939;28;20028;-66
2022/07/10 10:01:37;;;;;;;2.90;2.70;;;;;;;18.00;59.26;101899.91;4958022;28;20355;-67
2022/07/10 10:04:03;;;;;;;3.03;2.83;;;;;;;18.05;60.19;101902.97;4968830;28;20010;-67
2022/07/10 10:06:29;;;;;;;3.33;3.03;;;;;;;18.03;59.93;101891.53;4945639;28;20021;-64
2022/07/10 10:09:07;;;;;;;3.45;3.20;;;;;;;17.87;60.45;101902.97;4963326;28;20409;-67
2022/07/10 10:11:35;;;;;;;3.40;2.70;;;;;;;17.83;61.01;101901.59;4963851;28;20144;-67
2022/07/10 10:14:00;;;;;;;3.03;2.50;;;;;;;17.76;61.29;101903.22;4961762;28;20488;-67
2022/07/10 10:16:26;;;;;;;2.35;2.22;;;;;;;17.76;61.95;101896.00;4941874;28;20935;-66
2022/07/10 10:21:35;;;;;;;;;;;;;;;17.62;61.47;101905.44;4952066;28;20371;-65
2022/07/10 10:24:01;;;;;;;4.63;3.00;;;;;;;17.56;61.78;101895.38;4948538;28;20294;-67
2022/07/10 10:26:26;;;;;;;3.78;2.90;;;;;;;17.37;62.82;101891.00;4962136;28;20275;-66
2022/07/10 10:28:52;;;;;;;5.93;3.38;;;;;;;17.45;63.43;101892.94;4964374;28;20345;-66
2022/07/10 10:31:18;;;;;;;3.30;3.08;;;;;;;17.44;63.47;101899.28;4959569;28;20654;-66
2022/07/10 10:33:45;;;;;;;3.85;3.45;;;;;;;17.39;64.33;101890.88;4967334;28;20084;-66
2022/07/10 10:36:14;;;;;;;3.88;3.58;;;;;;;17.46;63.57;101898.13;4974135;28;20411;-66
2022/07/10 10:39:06;;;;;;;3.60;3.30;;;;;;;17.49;64.08;101895.13;4992648;28;20302;-67
2022/07/10 10:41:54;;;;;;;5.43;3.75;;;;;;;17.41;64.41;101892.38;4953946;28;20394;-67
2022/07/10 10:44:20;;;;;;;4.80;3.20;;;;;;;17.48;64.79;101888.09;4969835;28;20347;-66
2022/07/10 10:47:06;;;;;;;6.30;3.20;;;;;;;17.56;64.03;101892.69;4966794;28;20360;-66
2022/07/10 10:49:49;;;;;;;6.38;2.92;;;;;;;17.85;62.58;101889.75;4970410;28;20010;-66
2022/07/10 10:52:15;;;;;;;3.57;2.70;;;;;;;18.17;62.16;101874.88;4952806;28;20033;-67
2022/07/10 10:55:01;;;;;;;2.80;2.50;;;;;;;18.43;62.58;101879.38;4969894;28;20167;-65
2022/07/10 10:57:32;;;;;;;2.72;2.20;;;;;;;18.41;62.71;101870.66;4989166;28;20025;-66
2022/07/10 10:59:59;;;;;;;2.58;2.38;;;;;;;18.38;62.93;101862.94;4970067;28;20533;-68
2022/07/10 11:02:25;;;;;;;4.80;2.38;;;;;;;18.48;61.72;101871.69;4962711;28;20503;-66
2022/07/10 11:04:51;;;;;;;4.15;1.65;;;;;;;18.65;61.06;101871.75;4967262;28;20787;-66
2022/07/10 11:08:01;;;;;;;5.25;1.80;;;;;;;19.18;60.57;101878.59;4972379;28;20335;-65
2022/07/10 11:10:39;;;;;;;3.85;1.60;;;;;;;19.17;59.65;101863.50;4962044;28;20474;-64
2022/07/10 11:13:09;;;;;;;3.67;2.10;;;;;;;19.15;59.90;101867.34;4979077;28;20028;-66
2022/07/10 11:15:36;;;;;;;5.20;2.40;;;;;;;18.95;59.11;101864.13;4985942;28;20025;-67
2022/07/10 11:18:06;;;;;;;4.30;2.03;;;;;;;18.80;60.61;101867.44;4971030;28;20888;-66
2022/07/10 11:20:33;;;;;;;2.55;2.30;;;;;;;18.65;60.60;101863.69;4982929;28;20021;-67
2022/07/10 11:23:32;;;;;;;3.30;2.58;;;;;;;18.44;60.77;101862.28;4986242;28;20703;-65
2022/07/10 11:26:07;;;;;;;4.07;2.47;;;;;;;18.32;61.73;101868.94;4972498;28;20026;-66
2022/07/10 11:28:51;;;;;;;4.10;2.20;;;;;;;18.21;63.18;101866.56;4970079;28;20125;-68
2022/07/10 11:31:18;;;;;;;4.95;2.08;;;;;;;18.08;63.28;101867.81;4963678;28;20029;-67
2022/07/10 11:33:46;;;;;;;2.20;2.10;;;;;;;18.08;63.69;101862.47;4970425;28;20657;-66
2022/07/10 11:36:15;;;;;;;4.53;2.60;;;;;;;18.13;64.06;101859.28;4954764;28;20029;-66